createdAt,value
2022-10-04T00:02:23.684Z,18.30
2022-10-04T00:05:16.774Z,17.13
2022-10-04T00:08:26.500Z,17.15
2022-10-04T00:11:35.408Z,18.73
2022-10-04T00:14:33.054Z,16.50
2022-10-04T00:17:27.913Z,17.02
2022-10-04T00:20:50.500Z,17.25
2022-10-04T00:23:37.116Z,17.92
2022-10-04T00:26:25.713Z,17.35
2022-10-04T00:29:35.113Z,17.83
2022-10-04T00:32:27.341Z,16.38
2022-10-04T00:35:25.994Z,17.02
2022-10-04T00:38:27.485Z,16.30
2022-10-04T00:41:14.611Z,17.30
2022-10-04T00:44:02.429Z,15.27
2022-10-04T00:46:52.313Z,14.90
2022-10-04T00:49:43.219Z,16.17
2022-10-04T00:52:32.198Z,15.77
2022-10-04T00:55:40.646Z,14.18
2022-10-04T00:58:36.316Z,15.38
2022-10-04T01:01:26.552Z,14.33
2022-10-04T01:04:29.243Z,13.82
2022-10-04T01:07:24.703Z,13.05
2022-10-04T01:10:39.519Z,13.63
2022-10-04T01:13:43.278Z,13.15
2022-10-04T01:16:33.649Z,14.43
2022-10-04T01:19:30.447Z,15.23
2022-10-04T01:22:50.308Z,13.65
2022-10-04T01:25:51.247Z,13.30
2022-10-04T01:28:38.671Z,15.70
2022-10-04T01:31:25.950Z,13.13
2022-10-04T01:34:16.076Z,13.57
2022-10-04T01:37:02.729Z,12.68
2022-10-04T01:39:49.186Z,13.88
2022-10-04T01:42:57.601Z,12.43
2022-10-04T01:45:49.172Z,12.63
2022-10-04T01:48:38.297Z,14.73
2022-10-04T01:51:30.154Z,13.25
2022-10-04T01:54:25.560Z,13.13
2022-10-04T01:57:31.796Z,11.97
2022-10-04T02:00:20.819Z,13.77
2022-10-04T02:03:17.968Z,12.68
2022-10-04T02:06:08.097Z,12.77
2022-10-04T02:08:57.580Z,15.60
2022-10-04T02:11:45.353Z,12.80
2022-10-04T02:14:35.744Z,14.23
2022-10-04T02:17:28.297Z,14.07
2022-10-04T02:20:18.736Z,13.38
2022-10-04T02:23:04.733Z,12.65
2022-10-04T02:25:53.540Z,13.15
2022-10-04T02:28:39.529Z,13.57
2022-10-04T02:31:46.658Z,13.93
2022-10-04T02:34:34.497Z,13.25
2022-10-04T02:37:23.769Z,12.68
2022-10-04T02:40:24.807Z,13.73
2022-10-04T02:43:17.050Z,13.02
2022-10-04T02:46:25.436Z,14.02
2022-10-04T02:49:27.683Z,13.57
2022-10-04T02:52:38.614Z,12.93
2022-10-04T02:55:31.670Z,13.45
2022-10-04T02:58:21.652Z,12.95
2022-10-04T03:01:15.765Z,13.30
2022-10-04T03:04:02.951Z,13.60
2022-10-04T03:06:50.126Z,12.90
2022-10-04T03:09:38.148Z,12.88
2022-10-04T03:12:23.953Z,14.48
2022-10-04T03:15:13.112Z,12.90
2022-10-04T03:18:00.393Z,12.75
2022-10-04T03:20:47.128Z,14.05
2022-10-04T03:23:33.749Z,13.10
2022-10-04T03:26:37.565Z,12.25
2022-10-04T03:29:27.086Z,12.05
2022-10-04T03:32:16.037Z,12.73
2022-10-04T03:35:05.717Z,13.77
2022-10-04T03:37:52.476Z,14.45
2022-10-04T03:40:43.497Z,13.15
2022-10-04T03:43:34.551Z,13.02
2022-10-04T03:46:23.255Z,15.52
2022-10-04T03:49:12.877Z,12.77
2022-10-04T03:51:59.741Z,12.05
2022-10-04T03:54:45.820Z,12.52
2022-10-04T03:57:32.386Z,11.75
2022-10-04T04:00:19.664Z,11.80
2022-10-04T04:03:10.366Z,12.82
2022-10-04T04:06:00.047Z,11.80
2022-10-04T04:08:51.249Z,11.70
2022-10-04T04:11:38.061Z,11.88
2022-10-04T04:14:27.481Z,11.35
2022-10-04T04:17:37.027Z,11.55
2022-10-04T04:20:30.301Z,14.13
2022-10-04T04:23:19.269Z,12.82
2022-10-04T04:26:36.998Z,12.90
2022-10-04T04:29:47.565Z,12.13
2022-10-04T04:32:44.703Z,12.15
2022-10-04T04:35:36.533Z,12.73
2022-10-04T04:38:26.123Z,11.52
2022-10-04T04:41:12.663Z,11.55
2022-10-04T04:43:59.128Z,12.25
2022-10-04T04:46:49.326Z,11.88
2022-10-04T04:49:40.160Z,11.70
2022-10-04T04:52:29.374Z,12.43
2022-10-04T04:56:01.741Z,11.47
2022-10-04T04:58:46.772Z,11.35
2022-10-04T05:01:48.737Z,12.10
2022-10-04T05:04:34.886Z,12.05
2022-10-04T05:07:22.102Z,12.15
2022-10-04T05:10:44.629Z,12.38
2022-10-04T05:13:51.509Z,12.43
2022-10-04T05:16:50.514Z,12.27
2022-10-04T05:19:39.698Z,12.77
2022-10-04T05:22:27.279Z,12.13
2022-10-04T05:25:31.007Z,14.30
2022-10-04T05:28:20.700Z,12.73
2022-10-04T05:31:33.410Z,11.95
2022-10-04T05:34:23.836Z,12.83
2022-10-04T05:38:00.999Z,12.50
2022-10-04T05:41:04.180Z,11.70
2022-10-04T05:43:51.516Z,10.90
2022-10-04T05:46:41.960Z,11.25
2022-10-04T05:49:38.959Z,12.00
2022-10-04T05:52:30.547Z,10.88
2022-10-04T05:55:29.083Z,10.98
2022-10-04T05:58:52.057Z,10.27
2022-10-04T06:01:51.376Z,11.00
2022-10-04T06:04:40.289Z,11.02
2022-10-04T06:07:34.880Z,11.25
2022-10-04T06:10:39.576Z,13.17
2022-10-04T06:14:01.000Z,15.05
2022-10-04T06:17:00.370Z,11.18
2022-10-04T06:20:11.911Z,11.60
2022-10-04T06:23:06.405Z,13.18
2022-10-04T06:25:57.643Z,10.93
2022-10-04T06:28:51.727Z,11.98
2022-10-04T06:32:11.346Z,12.52
2022-10-04T06:35:30.641Z,12.07
2022-10-04T06:38:26.391Z,9.57
2022-10-04T06:41:12.883Z,13.00
2022-10-04T06:44:03.160Z,9.95
2022-10-04T06:47:15.646Z,10.30
2022-10-04T06:50:25.338Z,12.32
2022-10-04T06:53:34.166Z,10.23
2022-10-04T06:56:41.150Z,12.13
2022-10-04T06:59:40.920Z,10.63
2022-10-04T07:02:36.347Z,11.60
2022-10-04T07:05:56.415Z,11.27
2022-10-04T07:08:47.954Z,13.35
2022-10-04T07:11:46.627Z,16.48
2022-10-04T07:14:37.879Z,13.32
2022-10-04T07:17:31.225Z,14.70
2022-10-04T07:20:25.559Z,14.18
2022-10-04T07:23:28.235Z,14.35
2022-10-04T07:26:29.072Z,14.32
2022-10-04T07:29:39.907Z,15.68
2022-10-04T07:32:33.191Z,15.65
2022-10-04T07:35:47.532Z,15.10
2022-10-04T07:38:38.373Z,18.00
2022-10-04T07:41:35.677Z,13.93
2022-10-04T07:44:30.450Z,12.98
2022-10-04T07:47:22.558Z,14.25
2022-10-04T07:50:27.758Z,13.20
2022-10-04T07:53:23.368Z,12.48
2022-10-04T07:56:19.657Z,11.13
2022-10-04T07:59:24.432Z,17.23
2022-10-04T08:02:31.008Z,11.77
2022-10-04T08:06:11.530Z,11.35
2022-10-04T08:09:18.601Z,10.20
2022-10-04T08:12:18.201Z,11.15
2022-10-04T08:15:10.305Z,10.43
2022-10-04T08:18:05.934Z,12.85
2022-10-04T08:21:05.369Z,11.05
2022-10-04T08:24:00.274Z,12.57
2022-10-04T08:27:12.441Z,12.55
2022-10-04T08:30:10.047Z,12.48
2022-10-04T08:33:17.799Z,12.25
2022-10-04T08:36:14.292Z,12.90
2022-10-04T08:39:01.162Z,16.15
2022-10-04T08:42:19.106Z,14.50
2022-10-04T08:45:21.149Z,15.23
2022-10-04T08:48:24.617Z,16.70
2022-10-04T08:51:56.538Z,15.82
2022-10-04T08:55:04.537Z,15.88
2022-10-04T08:58:01.635Z,17.90
2022-10-04T09:01:06.289Z,17.27
2022-10-04T09:04:30.047Z,19.50
2022-10-04T09:07:40.143Z,16.50
2022-10-04T09:10:50.874Z,16.55
2022-10-04T09:13:36.473Z,16.30
2022-10-04T09:16:50.111Z,16.85
2022-10-04T09:19:41.689Z,17.42
2022-10-04T09:22:48.307Z,17.23
2022-10-04T09:25:53.205Z,17.13
2022-10-04T09:29:02.449Z,17.88
2022-10-04T09:31:50.228Z,17.48
2022-10-04T09:34:56.070Z,18.85
2022-10-04T09:38:10.073Z,16.95
2022-10-04T09:41:13.861Z,16.88
2022-10-04T09:44:27.484Z,18.35
2022-10-04T09:47:34.100Z,16.95
2022-10-04T09:50:46.168Z,17.70
2022-10-04T09:53:46.587Z,16.08
2022-10-04T09:56:53.786Z,15.05
2022-10-04T10:00:07.180Z,17.25
2022-10-04T10:03:06.721Z,13.32
2022-10-04T10:06:34.712Z,13.45
2022-10-04T10:09:46.658Z,14.07
2022-10-04T10:13:07.679Z,13.67
2022-10-04T10:16:10.922Z,12.98
2022-10-04T10:19:15.334Z,13.73
2022-10-04T10:22:04.053Z,14.15
2022-10-04T10:25:11.277Z,12.47
2022-10-04T10:28:06.174Z,16.13
2022-10-04T10:31:26.494Z,11.43
2022-10-04T10:34:30.964Z,10.23
2022-10-04T10:37:33.692Z,13.68
2022-10-04T10:40:30.893Z,10.30
2022-10-04T10:43:31.384Z,11.80
2022-10-04T10:46:46.389Z,11.65
2022-10-04T10:50:01.745Z,11.90
2022-10-04T10:53:09.704Z,11.15
2022-10-04T10:56:16.114Z,12.20
2022-10-04T10:59:50.062Z,11.95
2022-10-04T11:03:13.603Z,12.55
2022-10-04T11:06:30.096Z,10.82
2022-10-04T11:09:51.707Z,11.27
2022-10-04T11:13:26.558Z,12.45
2022-10-04T11:16:51.615Z,16.58
2022-10-04T11:19:40.259Z,11.85
2022-10-04T11:22:46.644Z,10.52
2022-10-04T11:25:36.028Z,11.07
2022-10-04T11:28:29.844Z,11.40
2022-10-04T11:31:37.643Z,11.13
2022-10-04T11:34:58.006Z,11.10
2022-10-04T11:37:53.692Z,10.57
2022-10-04T11:41:27.856Z,10.73
2022-10-04T11:44:41.772Z,14.20
2022-10-04T11:47:28.768Z,11.20
2022-10-04T11:50:23.008Z,11.45
2022-10-04T11:53:37.237Z,9.65
2022-10-04T11:56:48.397Z,22.50
2022-10-04T12:00:00.145Z,10.50
2022-10-04T12:03:11.326Z,11.60
2022-10-04T12:06:09.057Z,11.32
2022-10-04T12:09:33.771Z,10.05
2022-10-04T12:12:50.058Z,10.82
2022-10-04T12:15:54.414Z,10.23
2022-10-04T12:18:46.699Z,10.07
2022-10-04T12:21:59.973Z,9.50
2022-10-04T12:25:19.637Z,9.82
2022-10-04T12:28:27.554Z,9.43
2022-10-04T12:31:33.610Z,9.02
2022-10-04T12:34:39.152Z,7.78
2022-10-04T12:37:41.514Z,9.15
2022-10-04T12:41:18.614Z,8.27
2022-10-04T12:44:34.103Z,9.13
2022-10-04T12:47:52.143Z,8.10
2022-10-04T12:51:07.216Z,7.20
2022-10-04T12:54:08.252Z,7.63
2022-10-04T12:57:01.751Z,7.97
2022-10-04T12:59:57.044Z,7.53
2022-10-04T13:03:31.547Z,7.03
2022-10-04T13:06:26.335Z,8.30
2022-10-04T13:10:22.494Z,9.23
2022-10-04T13:13:41.625Z,9.05
2022-10-04T13:20:22.884Z,8.20
2022-10-04T13:23:37.334Z,7.88
2022-10-04T13:26:32.506Z,8.20
2022-10-04T13:29:33.224Z,7.95
2022-10-04T13:32:28.866Z,8.77
2022-10-04T13:35:25.975Z,9.27
2022-10-04T13:38:50.383Z,8.07
2022-10-04T13:41:54.162Z,7.78
2022-10-04T13:44:46.786Z,9.52
2022-10-04T13:47:46.818Z,8.88
2022-10-04T13:50:42.551Z,9.07
2022-10-04T13:54:15.420Z,8.77
2022-10-04T13:57:23.691Z,9.20
2022-10-04T14:00:19.125Z,8.80
2022-10-04T14:03:05.199Z,8.85
2022-10-04T14:06:13.272Z,7.53
2022-10-04T14:09:17.362Z,8.73
2022-10-04T14:12:35.966Z,10.07
2022-10-04T14:15:24.204Z,9.23
2022-10-04T14:18:37.694Z,9.43
2022-10-04T14:21:47.258Z,7.97
2022-10-04T14:24:39.959Z,10.15
2022-10-04T14:27:39.813Z,10.07
2022-10-04T14:31:04.217Z,8.82
2022-10-04T14:34:38.891Z,8.85
2022-10-04T14:37:43.296Z,9.17
2022-10-04T14:40:47.245Z,10.60
2022-10-04T14:43:33.485Z,9.13
2022-10-04T14:46:19.979Z,8.60
2022-10-04T14:49:20.423Z,9.50
2022-10-04T14:52:32.461Z,8.52
2022-10-04T14:55:31.132Z,11.35
2022-10-04T14:58:31.283Z,9.30
2022-10-04T15:01:23.107Z,10.13
2022-10-04T15:04:32.923Z,8.23
2022-10-04T15:07:32.169Z,9.17
2022-10-04T15:10:38.207Z,8.50
2022-10-04T15:13:35.321Z,8.23
2022-10-04T15:16:52.984Z,9.90
2022-10-04T15:20:02.550Z,10.70
2022-10-04T15:23:34.773Z,7.90
2022-10-04T15:26:21.176Z,8.00
2022-10-04T15:29:27.839Z,8.17
2022-10-04T15:32:39.672Z,8.07
2022-10-04T15:35:31.318Z,8.65
2022-10-04T15:38:53.760Z,8.57
2022-10-04T15:41:46.060Z,8.18
2022-10-04T15:45:14.522Z,10.68
2022-10-04T15:48:35.095Z,8.95
2022-10-04T15:52:03.533Z,8.45
2022-10-04T15:54:55.919Z,7.95
2022-10-04T15:57:45.448Z,9.40
2022-10-04T16:01:19.874Z,10.55
2022-10-04T16:04:31.971Z,8.52
2022-10-04T16:07:30.166Z,8.60
2022-10-04T16:10:19.634Z,7.95
2022-10-04T16:13:32.237Z,9.95
2022-10-04T16:16:19.403Z,10.45
2022-10-04T16:19:42.725Z,8.02
2022-10-04T16:22:34.101Z,27.38
2022-10-04T16:25:26.246Z,16.50
2022-10-04T16:28:35.050Z,10.02
2022-10-04T16:31:52.390Z,10.10
2022-10-04T16:34:59.009Z,9.77
2022-10-04T16:38:00.324Z,8.35
2022-10-04T16:40:52.079Z,8.90
2022-10-04T16:44:00.305Z,10.88
2022-10-04T16:46:51.413Z,11.30
2022-10-04T16:49:49.265Z,9.65
2022-10-04T16:52:48.401Z,9.75
2022-10-04T16:55:51.611Z,11.55
2022-10-04T16:58:57.002Z,10.13
2022-10-04T17:02:07.354Z,11.75
2022-10-04T17:05:41.214Z,10.32
2022-10-04T17:08:48.753Z,28.58
2022-10-04T17:11:44.180Z,10.45
2022-10-04T17:14:49.357Z,11.05
2022-10-04T17:17:58.222Z,12.23
2022-10-04T17:20:46.923Z,9.95
2022-10-04T17:23:39.124Z,9.88
2022-10-04T17:26:58.993Z,12.27
2022-10-04T17:30:41.984Z,10.93
2022-10-04T17:33:47.094Z,10.63
2022-10-04T17:36:41.240Z,10.23
2022-10-04T17:39:32.869Z,11.65
2022-10-04T17:42:38.325Z,12.85
2022-10-04T17:45:45.391Z,10.77
2022-10-04T17:48:57.927Z,11.68
2022-10-04T17:52:08.194Z,16.83
2022-10-04T17:55:17.602Z,13.00
2022-10-04T17:58:13.618Z,11.73
2022-10-04T18:01:41.266Z,11.77
2022-10-04T18:04:40.413Z,29.73
2022-10-04T18:07:34.268Z,18.92
2022-10-04T18:11:06.083Z,12.77
2022-10-04T18:14:00.799Z,12.30
2022-10-04T18:17:04.081Z,12.88
2022-10-04T18:20:08.254Z,13.63
2022-10-04T18:22:58.816Z,12.20
2022-10-04T18:25:46.515Z,13.90
2022-10-04T18:28:35.126Z,10.05
2022-10-04T18:31:38.068Z,12.75
2022-10-04T18:34:29.413Z,13.05
2022-10-04T18:37:38.742Z,12.65
2022-10-04T18:40:33.973Z,14.85
2022-10-04T18:43:33.203Z,11.07
2022-10-04T18:46:21.578Z,11.30
2022-10-04T18:49:24.665Z,13.38
2022-10-04T18:52:10.742Z,13.18
2022-10-04T18:55:18.385Z,11.77
2022-10-04T18:58:41.294Z,11.43
2022-10-04T19:01:59.671Z,12.15
2022-10-04T19:05:02.171Z,13.27
2022-10-04T19:07:59.026Z,15.97
2022-10-04T19:10:58.069Z,13.20
2022-10-04T19:14:18.692Z,14.95
2022-10-04T19:17:27.083Z,13.40
2022-10-04T19:20:40.731Z,14.05
2022-10-04T19:23:33.146Z,13.05
2022-10-04T19:26:39.507Z,13.85
2022-10-04T19:30:02.105Z,12.82
2022-10-04T19:33:06.988Z,14.48
2022-10-04T19:36:08.211Z,14.38
2022-10-04T19:38:54.285Z,15.18
2022-10-04T19:42:00.462Z,13.23
2022-10-04T19:45:07.309Z,14.25
2022-10-04T19:47:58.944Z,14.05
2022-10-04T19:50:49.823Z,14.35
2022-10-04T19:53:42.519Z,15.63
2022-10-04T19:56:33.112Z,16.13
2022-10-04T19:59:35.837Z,15.82
2022-10-04T20:02:22.046Z,18.85
2022-10-04T20:05:16.209Z,14.13
2022-10-04T20:08:06.256Z,15.25
2022-10-04T20:11:32.120Z,14.00
2022-10-04T20:14:21.528Z,14.57
2022-10-04T20:20:57.002Z,14.20
2022-10-04T20:23:47.732Z,15.52
2022-10-04T20:26:54.463Z,15.40
2022-10-04T20:29:40.605Z,14.63
2022-10-04T20:32:26.621Z,16.10
2022-10-04T20:35:33.688Z,17.55
2022-10-04T20:38:32.181Z,17.00
2022-10-04T20:41:50.006Z,19.50
2022-10-04T20:44:43.322Z,17.65
2022-10-04T20:47:54.907Z,17.02
2022-10-04T20:50:43.255Z,16.65
2022-10-04T20:53:32.014Z,20.52
2022-10-04T20:56:26.678Z,16.45
2022-10-04T20:59:15.704Z,16.98
2022-10-04T21:02:12.169Z,16.42
2022-10-04T21:05:14.623Z,15.70
2022-10-04T21:08:24.468Z,18.38
2022-10-04T21:11:21.011Z,19.45
2022-10-04T21:14:29.252Z,16.73
2022-10-04T21:17:30.866Z,16.30
2022-10-04T21:20:43.763Z,16.50
2022-10-04T21:23:34.442Z,15.75
2022-10-04T21:26:21.481Z,16.95
2022-10-04T21:29:07.307Z,16.07
2022-10-04T21:31:55.783Z,16.77
2022-10-04T21:34:53.149Z,17.85
2022-10-04T21:37:39.770Z,17.42
2022-10-04T21:40:25.178Z,16.23
2022-10-04T21:43:12.152Z,19.80
2022-10-04T21:45:59.422Z,21.47
2022-10-04T21:48:45.481Z,21.15
2022-10-04T21:51:33.115Z,16.35
2022-10-04T21:54:19.388Z,16.77
2022-10-04T21:57:05.872Z,18.00
2022-10-04T21:59:52.652Z,18.88
2022-10-04T22:02:38.426Z,16.48
2022-10-04T22:05:25.353Z,19.52
2022-10-04T22:08:11.949Z,18.38
2022-10-04T22:10:58.095Z,18.48
2022-10-04T22:13:44.704Z,21.23
2022-10-04T22:16:30.944Z,19.52
2022-10-04T22:19:17.809Z,19.38
2022-10-04T22:22:03.493Z,18.60
2022-10-04T22:24:49.124Z,20.30
2022-10-04T22:27:34.657Z,22.57
2022-10-04T22:30:29.884Z,20.33
2022-10-04T22:33:43.980Z,19.55
2022-10-04T22:36:39.357Z,21.47
2022-10-04T22:39:27.791Z,22.40
2022-10-04T22:42:15.194Z,21.53
2022-10-04T22:45:02.328Z,20.08
2022-10-04T22:47:49.021Z,21.30
2022-10-04T22:50:37.527Z,21.10
2022-10-04T22:53:24.276Z,20.92
2022-10-04T22:56:11.653Z,21.17
2022-10-04T22:58:59.333Z,20.98
2022-10-04T23:01:46.765Z,20.92
2022-10-04T23:04:32.737Z,20.85
2022-10-04T23:07:19.775Z,23.13
2022-10-04T23:10:06.181Z,21.55
2022-10-04T23:12:52.129Z,21.33
2022-10-04T23:15:38.695Z,23.33
2022-10-04T23:18:24.158Z,21.15
2022-10-04T23:21:21.858Z,23.17
2022-10-04T23:24:17.355Z,23.98
2022-10-04T23:27:04.089Z,24.02
2022-10-04T23:30:05.445Z,23.80
2022-10-04T23:32:56.760Z,24.45
2022-10-04T23:35:42.750Z,25.45
2022-10-04T23:38:30.175Z,24.73
2022-10-04T23:41:19.136Z,24.33
2022-10-04T23:44:13.112Z,24.75
2022-10-04T23:46:58.989Z,25.45
2022-10-04T23:49:48.715Z,24.23
2022-10-04T23:52:40.042Z,24.05
2022-10-04T23:55:31.552Z,24.70
2022-10-04T23:58:23.805Z,24.20
